sensor_id;sensor_type;location;lat;lon;timestamp;pressure;altitude;pressure_sealevel;temperature;humidity
64200;BME280;50516;52.272;5.136;2022-11-18T00:01:46;99438.63;;;9.14;90.18
64200;BME280;50516;52.272;5.136;2022-11-18T00:04:11;99435.50;;;9.02;90.68
64200;BME280;50516;52.272;5.136;2022-11-18T00:06:37;99437.59;;;9.10;90.73
64200;BME280;50516;52.272;5.136;2022-11-18T00:09:02;99441.50;;;9.04;90.52
64200;BME280;50516;52.272;5.136;2022-11-18T00:11:28;99438.69;;;9.09;90.23
64200;BME280;50516;52.272;5.136;2022-11-18T00:14:15;99437.00;;;9.13;90.22
64200;BME280;50516;52.272;5.136;2022-11-18T00:16:54;99448.97;;;9.17;89.71
64200;BME280;50516;52.272;5.136;2022-11-18T00:19:23;99449.25;;;9.16;89.54
64200;BME280;50516;52.272;5.136;2022-11-18T00:21:48;99453.41;;;9.13;90.02
64200;BME280;50516;52.272;5.136;2022-11-18T00:24:14;99459.09;;;9.17;89.53
64200;BME280;50516;52.272;5.136;2022-11-18T00:26:39;99463.31;;;9.09;89.67
64200;BME280;50516;52.272;5.136;2022-11-18T00:29:05;99468.28;;;9.07;90.13
64200;BME280;50516;52.272;5.136;2022-11-18T00:31:30;99478.22;;;9.03;90.25
64200;BME280;50516;52.272;5.136;2022-11-18T00:33:55;99488.19;;;8.93;90.34
64200;BME280;50516;52.272;5.136;2022-11-18T00:36:21;99481.25;;;9.01;90.16
64200;BME280;50516;52.272;5.136;2022-11-18T00:38:46;99488.63;;;9.01;90.57
64200;BME280;50516;52.272;5.136;2022-11-18T00:41:13;99484.22;;;9.05;90.18
64200;BME280;50516;52.272;5.136;2022-11-18T00:43:39;99490.63;;;8.95;89.82
64200;BME280;50516;52.272;5.136;2022-11-18T00:46:06;99492.41;;;9.05;89.89
64200;BME280;50516;52.272;5.136;2022-11-18T00:48:31;99492.13;;;9.06;89.74
64200;BME280;50516;52.272;5.136;2022-11-18T00:50:58;99498.41;;;9.07;89.55
64200;BME280;50516;52.272;5.136;2022-11-18T00:53:25;99499.50;;;9.06;89.81
64200;BME280;50516;52.272;5.136;2022-11-18T00:55:51;99499.00;;;9.04;90.12
64200;BME280;50516;52.272;5.136;2022-11-18T00:58:17;99504.75;;;9.02;89.71
64200;BME280;50516;52.272;5.136;2022-11-18T01:00:44;99506.69;;;9.02;89.74
64200;BME280;50516;52.272;5.136;2022-11-18T01:03:10;99509.44;;;9.02;89.62
64200;BME280;50516;52.272;5.136;2022-11-18T01:05:37;99506.69;;;9.02;89.89
64200;BME280;50516;52.272;5.136;2022-11-18T01:08:02;99511.50;;;9.10;89.45
64200;BME280;50516;52.272;5.136;2022-11-18T01:10:28;99515.34;;;9.09;89.21
64200;BME280;50516;52.272;5.136;2022-11-18T01:12:53;99517.06;;;9.05;89.23
64200;BME280;50516;52.272;5.136;2022-11-18T01:15:39;99531.34;;;9.02;89.19
64200;BME280;50516;52.272;5.136;2022-11-18T01:18:04;99528.97;;;8.95;89.65
64200;BME280;50516;52.272;5.136;2022-11-18T01:20:34;99529.19;;;8.99;89.66
64200;BME280;50516;52.272;5.136;2022-11-18T01:22:59;99531.34;;;9.02;89.38
64200;BME280;50516;52.272;5.136;2022-11-18T01:25:25;99536.31;;;9.00;89.32
64200;BME280;50516;52.272;5.136;2022-11-18T01:27:50;99530.81;;;9.00;89.27
64200;BME280;50516;52.272;5.136;2022-11-18T01:30:16;99541.47;;;9.01;89.72
64200;BME280;50516;52.272;5.136;2022-11-18T01:32:42;99543.97;;;8.98;88.87
64200;BME280;50516;52.272;5.136;2022-11-18T01:35:08;99547.84;;;8.97;89.39
64200;BME280;50516;52.272;5.136;2022-11-18T01:37:34;99553.38;;;8.91;89.17
64200;BME280;50516;52.272;5.136;2022-11-18T01:39:59;99554.75;;;8.89;89.65
64200;BME280;50516;52.272;5.136;2022-11-18T01:42:25;99550.38;;;8.88;89.74
64200;BME280;50516;52.272;5.136;2022-11-18T01:47:32;99556.69;;;8.88;90.03
64200;BME280;50516;52.272;5.136;2022-11-18T01:50:00;99561.69;;;8.81;89.58
64200;BME280;50516;52.272;5.136;2022-11-18T01:52:26;99567.16;;;8.81;90.29
64200;BME280;50516;52.272;5.136;2022-11-18T01:54:56;99569.31;;;8.84;90.00
64200;BME280;50516;52.272;5.136;2022-11-18T01:57:23;99571.84;;;8.81;89.62
64200;BME280;50516;52.272;5.136;2022-11-18T01:59:54;99564.44;;;8.81;89.84
64200;BME280;50516;52.272;5.136;2022-11-18T02:02:20;99568.75;;;8.87;89.77
64200;BME280;50516;52.272;5.136;2022-11-18T02:04:48;99577.25;;;8.86;89.71
64200;BME280;50516;52.272;5.136;2022-11-18T02:07:16;99573.78;;;8.80;90.04
64200;BME280;50516;52.272;5.136;2022-11-18T02:09:42;99570.78;;;8.76;90.04
64200;BME280;50516;52.272;5.136;2022-11-18T02:12:07;99570.56;;;8.73;90.30
64200;BME280;50516;52.272;5.136;2022-11-18T02:14:36;99572.66;;;8.81;90.57
64200;BME280;50516;52.272;5.136;2022-11-18T02:17:32;99584.72;;;8.80;90.60
64200;BME280;50516;52.272;5.136;2022-11-18T02:20:23;99574.88;;;8.79;90.10
64200;BME280;50516;52.272;5.136;2022-11-18T02:25:53;99594.88;;;8.74;90.79
64200;BME280;50516;52.272;5.136;2022-11-18T02:31:07;99593.78;;;8.75;90.24
64200;BME280;50516;52.272;5.136;2022-11-18T02:33:41;99600.06;;;8.76;90.51
64200;BME280;50516;52.272;5.136;2022-11-18T02:36:39;99603.25;;;8.83;90.24
64200;BME280;50516;52.272;5.136;2022-11-18T02:39:16;99597.56;;;8.80;90.10
64200;BME280;50516;52.272;5.136;2022-11-18T02:41:46;99600.44;;;8.69;90.51
64200;BME280;50516;52.272;5.136;2022-11-18T02:44:15;99603.75;;;8.66;91.06
64200;BME280;50516;52.272;5.136;2022-11-18T02:46:44;99612.47;;;8.68;91.39
64200;BME280;50516;52.272;5.136;2022-11-18T02:49:20;99613.31;;;8.69;90.39
64200;BME280;50516;52.272;5.136;2022-11-18T02:51:47;99614.09;;;8.69;91.43
64200;BME280;50516;52.272;5.136;2022-11-18T02:54:14;99618.41;;;8.51;91.38
64200;BME280;50516;52.272;5.136;2022-11-18T02:56:41;99614.03;;;8.50;91.45
64200;BME280;50516;52.272;5.136;2022-11-18T02:59:07;99620.28;;;8.56;91.64
64200;BME280;50516;52.272;5.136;2022-11-18T03:01:34;99618.81;;;8.64;91.85
64200;BME280;50516;52.272;5.136;2022-11-18T03:04:00;99622.31;;;8.69;91.26
64200;BME280;50516;52.272;5.136;2022-11-18T03:06:41;99622.53;;;8.73;91.19
64200;BME280;50516;52.272;5.136;2022-11-18T03:09:30;99632.97;;;8.71;90.90
64200;BME280;50516;52.272;5.136;2022-11-18T03:12:02;99628.03;;;8.73;90.82
64200;BME280;50516;52.272;5.136;2022-11-18T03:14:57;99630.94;;;8.57;91.41
64200;BME280;50516;52.272;5.136;2022-11-18T03:20:21;99637.72;;;8.60;91.26
64200;BME280;50516;52.272;5.136;2022-11-18T03:25:50;99635.72;;;8.71;90.73
64200;BME280;50516;52.272;5.136;2022-11-18T03:28:40;99647.75;;;8.70;90.54
64200;BME280;50516;52.272;5.136;2022-11-18T03:31:20;99648.63;;;8.65;90.65
64200;BME280;50516;52.272;5.136;2022-11-18T03:33:52;99648.66;;;8.60;91.19
64200;BME280;50516;52.272;5.136;2022-11-18T03:36:22;99662.00;;;8.67;90.54
64200;BME280;50516;52.272;5.136;2022-11-18T03:38:58;99648.56;;;8.70;91.02
64200;BME280;50516;52.272;5.136;2022-11-18T03:41:25;99653.28;;;8.65;90.88
64200;BME280;50516;52.272;5.136;2022-11-18T03:43:58;99665.44;;;8.53;91.07
64200;BME280;50516;52.272;5.136;2022-11-18T03:46:41;99668.06;;;8.64;91.32
64200;BME280;50516;52.272;5.136;2022-11-18T03:49:11;99671.13;;;8.57;91.32
64200;BME280;50516;52.272;5.136;2022-11-18T03:51:45;99680.69;;;8.59;91.54
64200;BME280;50516;52.272;5.136;2022-11-18T03:54:19;99680.19;;;8.52;92.05
64200;BME280;50516;52.272;5.136;2022-11-18T03:56:50;99681.78;;;8.58;91.67
64200;BME280;50516;52.272;5.136;2022-11-18T04:00:10;99677.09;;;8.64;91.29
64200;BME280;50516;52.272;5.136;2022-11-18T04:02:14;99676.84;;;8.61;91.31
64200;BME280;50516;52.272;5.136;2022-11-18T04:04:41;99682.00;;;8.67;91.07
64200;BME280;50516;52.272;5.136;2022-11-18T04:09:46;99695.22;;;8.55;91.89
64200;BME280;50516;52.272;5.136;2022-11-18T04:12:17;99692.69;;;8.64;91.24
64200;BME280;50516;52.272;5.136;2022-11-18T04:14:45;99691.13;;;8.57;91.21
64200;BME280;50516;52.272;5.136;2022-11-18T04:17:16;99697.16;;;8.54;91.46
64200;BME280;50516;52.272;5.136;2022-11-18T04:19:42;99700.38;;;8.62;91.34
64200;BME280;50516;52.272;5.136;2022-11-18T04:22:08;99701.56;;;8.50;91.16
64200;BME280;50516;52.272;5.136;2022-11-18T04:24:34;99711.88;;;8.58;91.07
64200;BME280;50516;52.272;5.136;2022-11-18T04:27:00;99705.38;;;8.54;90.76
64200;BME280;50516;52.272;5.136;2022-11-18T04:29:27;99718.78;;;8.51;91.18
64200;BME280;50516;52.272;5.136;2022-11-18T04:31:52;99722.59;;;8.55;90.93
64200;BME280;50516;52.272;5.136;2022-11-18T04:34:17;99713.59;;;8.49;91.20
64200;BME280;50516;52.272;5.136;2022-11-18T04:36:42;99725.38;;;8.50;90.87
64200;BME280;50516;52.272;5.136;2022-11-18T04:39:08;99726.41;;;8.54;90.96
64200;BME280;50516;52.272;5.136;2022-11-18T04:41:33;99727.88;;;8.46;90.34
64200;BME280;50516;52.272;5.136;2022-11-18T04:44:17;99728.44;;;8.38;91.09
64200;BME280;50516;52.272;5.136;2022-11-18T04:46:43;99735.78;;;8.43;91.64
64200;BME280;50516;52.272;5.136;2022-11-18T04:49:10;99732.78;;;8.44;91.09
64200;BME280;50516;52.272;5.136;2022-11-18T04:51:36;99742.13;;;8.43;90.99
64200;BME280;50516;52.272;5.136;2022-11-18T04:54:02;99737.19;;;8.40;91.35
64200;BME280;50516;52.272;5.136;2022-11-18T04:56:28;99744.84;;;8.38;91.11
64200;BME280;50516;52.272;5.136;2022-11-18T04:58:53;99740.50;;;8.37;90.91
64200;BME280;50516;52.272;5.136;2022-11-18T05:01:19;99748.41;;;8.38;91.45
64200;BME280;50516;52.272;5.136;2022-11-18T05:03:44;99748.41;;;8.38;91.26
64200;BME280;50516;52.272;5.136;2022-11-18T05:06:09;99759.91;;;8.35;91.98
64200;BME280;50516;52.272;5.136;2022-11-18T05:08:34;99760.72;;;8.36;91.61
64200;BME280;50516;52.272;5.136;2022-11-18T05:11:05;99762.88;;;8.44;91.42
64200;BME280;50516;52.272;5.136;2022-11-18T05:13:49;99764.53;;;8.40;91.30
64200;BME280;50516;52.272;5.136;2022-11-18T05:16:14;99766.72;;;8.38;91.58
64200;BME280;50516;52.272;5.136;2022-11-18T05:18:40;99764.81;;;8.44;91.03
64200;BME280;50516;52.272;5.136;2022-11-18T05:21:05;99762.09;;;8.38;90.80
64200;BME280;50516;52.272;5.136;2022-11-18T05:23:30;99765.91;;;8.37;91.33
64200;BME280;50516;52.272;5.136;2022-11-18T05:25:56;99780.41;;;8.43;91.07
64200;BME280;50516;52.272;5.136;2022-11-18T05:28:21;99783.09;;;8.48;91.17
64200;BME280;50516;52.272;5.136;2022-11-18T05:30:46;99784.72;;;8.49;91.37
64200;BME280;50516;52.272;5.136;2022-11-18T05:33:12;99788.06;;;8.46;91.74
64200;BME280;50516;52.272;5.136;2022-11-18T05:35:37;99788.88;;;8.41;91.37
64200;BME280;50516;52.272;5.136;2022-11-18T05:38:03;99797.41;;;8.35;91.45
64200;BME280;50516;52.272;5.136;2022-11-18T05:40:28;99792.69;;;8.40;91.98
64200;BME280;50516;52.272;5.136;2022-11-18T05:42:53;99795.72;;;8.39;92.25
64200;BME280;50516;52.272;5.136;2022-11-18T05:45:37;99794.66;;;8.30;93.20
64200;BME280;50516;52.272;5.136;2022-11-18T05:48:03;99800.63;;;8.42;92.91
64200;BME280;50516;52.272;5.136;2022-11-18T05:50:31;99806.31;;;8.51;92.33
64200;BME280;50516;52.272;5.136;2022-11-18T05:52:57;99804.69;;;8.55;92.12
64200;BME280;50516;52.272;5.136;2022-11-18T05:55:25;99805.19;;;8.57;92.59
64200;BME280;50516;52.272;5.136;2022-11-18T05:57:51;99810.72;;;8.52;92.29
64200;BME280;50516;52.272;5.136;2022-11-18T06:00:17;99813.25;;;8.43;93.16
64200;BME280;50516;52.272;5.136;2022-11-18T06:02:44;99810.91;;;8.61;93.06
64200;BME280;50516;52.272;5.136;2022-11-18T06:05:11;99812.28;;;8.63;92.62
64200;BME280;50516;52.272;5.136;2022-11-18T06:07:40;99812.06;;;8.54;93.26
64200;BME280;50516;52.272;5.136;2022-11-18T06:10:09;99814.72;;;8.65;93.09
64200;BME280;50516;52.272;5.136;2022-11-18T06:12:40;99822.41;;;8.63;93.50
64200;BME280;50516;52.272;5.136;2022-11-18T06:15:20;99820.72;;;8.67;93.54
64200;BME280;50516;52.272;5.136;2022-11-18T06:18:15;99819.69;;;8.63;93.34
64200;BME280;50516;52.272;5.136;2022-11-18T06:20:42;99825.69;;;8.65;93.82
64200;BME280;50516;52.272;5.136;2022-11-18T06:23:07;99832.78;;;8.66;93.73
64200;BME280;50516;52.272;5.136;2022-11-18T06:25:32;99834.97;;;8.64;94.36
64200;BME280;50516;52.272;5.136;2022-11-18T06:28:01;99845.31;;;8.72;93.85
64200;BME280;50516;52.272;5.136;2022-11-18T06:30:27;99841.44;;;8.78;93.23
64200;BME280;50516;52.272;5.136;2022-11-18T06:32:52;99855.34;;;8.87;93.35
64200;BME280;50516;52.272;5.136;2022-11-18T06:35:17;99853.72;;;8.86;93.51
64200;BME280;50516;52.272;5.136;2022-11-18T06:37:42;99861.63;;;8.87;93.46
64200;BME280;50516;52.272;5.136;2022-11-18T06:40:08;99861.31;;;8.94;93.01
64200;BME280;50516;52.272;5.136;2022-11-18T06:42:35;99863.00;;;8.85;93.51
64200;BME280;50516;52.272;5.136;2022-11-18T06:45:19;99871.78;;;8.87;93.71
64200;BME280;50516;52.272;5.136;2022-11-18T06:47:44;99877.25;;;8.87;93.35
64200;BME280;50516;52.272;5.136;2022-11-18T06:50:09;99869.53;;;8.94;93.24
64200;BME280;50516;52.272;5.136;2022-11-18T06:52:34;99881.88;;;8.86;93.01
64200;BME280;50516;52.272;5.136;2022-11-18T06:55:00;99887.41;;;8.81;93.90
64200;BME280;50516;52.272;5.136;2022-11-18T06:57:25;99891.75;;;8.87;93.79
64200;BME280;50516;52.272;5.136;2022-11-18T06:59:50;99893.63;;;8.92;93.40
64200;BME280;50516;52.272;5.136;2022-11-18T07:02:16;99886.38;;;8.72;93.94
64200;BME280;50516;52.272;5.136;2022-11-18T07:04:43;99895.69;;;8.71;94.45
64200;BME280;50516;52.272;5.136;2022-11-18T07:07:09;99891.09;;;8.61;94.70
64200;BME280;50516;52.272;5.136;2022-11-18T07:09:35;99900.66;;;8.64;94.77
64200;BME280;50516;52.272;5.136;2022-11-18T07:12:01;99909.41;;;8.61;94.99
64200;BME280;50516;52.272;5.136;2022-11-18T07:14:27;99914.31;;;8.69;94.63
64200;BME280;50516;52.272;5.136;2022-11-18T07:16:53;99914.81;;;8.76;94.85
64200;BME280;50516;52.272;5.136;2022-11-18T07:19:18;99921.06;;;8.87;94.16
64200;BME280;50516;52.272;5.136;2022-11-18T07:21:43;99927.63;;;8.86;94.38
64200;BME280;50516;52.272;5.136;2022-11-18T07:24:12;99932.75;;;8.98;93.84
64200;BME280;50516;52.272;5.136;2022-11-18T07:26:37;99935.84;;;8.86;93.63
64200;BME280;50516;52.272;5.136;2022-11-18T07:29:03;99939.66;;;8.85;94.15
64200;BME280;50516;52.272;5.136;2022-11-18T07:31:29;99934.41;;;8.93;93.93
64200;BME280;50516;52.272;5.136;2022-11-18T07:33:54;99939.66;;;8.85;94.10
64200;BME280;50516;52.272;5.136;2022-11-18T07:36:22;99946.19;;;8.94;93.88
64200;BME280;50516;52.272;5.136;2022-11-18T07:38:48;99951.38;;;8.95;94.14
64200;BME280;50516;52.272;5.136;2022-11-18T07:41:22;99955.16;;;9.05;94.09
64200;BME280;50516;52.272;5.136;2022-11-18T07:43:50;99957.22;;;9.23;93.03
64200;BME280;50516;52.272;5.136;2022-11-18T07:46:18;99962.69;;;9.23;92.78
64200;BME280;50516;52.272;5.136;2022-11-18T07:48:45;99972.03;;;9.22;92.96
64200;BME280;50516;52.272;5.136;2022-11-18T07:51:12;99971.19;;;9.22;93.62
64200;BME280;50516;52.272;5.136;2022-11-18T07:53:37;99975.84;;;9.21;93.33
64200;BME280;50516;52.272;5.136;2022-11-18T07:56:03;99973.66;;;9.23;93.33
64200;BME280;50516;52.272;5.136;2022-11-18T07:58:29;99975.22;;;9.35;92.50
64200;BME280;50516;52.272;5.136;2022-11-18T08:00:55;99983.94;;;9.42;92.55
64200;BME280;50516;52.272;5.136;2022-11-18T08:03:25;99988.56;;;9.46;92.90
64200;BME280;50516;52.272;5.136;2022-11-18T08:05:50;99996.56;;;9.38;92.62
64200;BME280;50516;52.272;5.136;2022-11-18T08:08:15;99986.09;;;9.45;92.40
64200;BME280;50516;52.272;5.136;2022-11-18T08:10:41;99997.34;;;9.43;92.67
64200;BME280;50516;52.272;5.136;2022-11-18T08:13:06;100008.03;;;9.40;92.40
64200;BME280;50516;52.272;5.136;2022-11-18T08:15:31;100005.84;;;9.42;92.82
64200;BME280;50516;52.272;5.136;2022-11-18T08:17:57;100017.00;;;9.50;91.99
64200;BME280;50516;52.272;5.136;2022-11-18T08:20:22;100014.50;;;9.59;91.68
64200;BME280;50516;52.272;5.136;2022-11-18T08:22:51;100012.47;;;9.70;91.83
64200;BME280;50516;52.272;5.136;2022-11-18T08:25:16;100012.75;;;9.68;91.60
64200;BME280;50516;52.272;5.136;2022-11-18T08:27:41;100018.50;;;9.72;91.48
64200;BME280;50516;52.272;5.136;2022-11-18T08:30:07;100018.19;;;9.79;91.34
64200;BME280;50516;52.272;5.136;2022-11-18T08:32:33;100016.25;;;9.79;91.29
64200;BME280;50516;52.272;5.136;2022-11-18T08:34:58;100027.50;;;9.78;90.72
64200;BME280;50516;52.272;5.136;2022-11-18T08:37:23;100023.59;;;9.84;90.50
64200;BME280;50516;52.272;5.136;2022-11-18T08:39:48;100028.03;;;9.80;90.85
64200;BME280;50516;52.272;5.136;2022-11-18T08:42:14;100032.00;;;9.63;91.24
64200;BME280;50516;52.272;5.136;2022-11-18T08:44:39;100033.56;;;9.75;90.79
64200;BME280;50516;52.272;5.136;2022-11-18T08:47:04;100032.88;;;9.88;90.83
64200;BME280;50516;52.272;5.136;2022-11-18T08:49:30;100035.56;;;9.98;90.36
64200;BME280;50516;52.272;5.136;2022-11-18T08:51:55;100037.72;;;10.01;90.01
64200;BME280;50516;52.272;5.136;2022-11-18T08:54:20;100038.97;;;10.14;90.05
64200;BME280;50516;52.272;5.136;2022-11-18T08:56:46;100050.03;;;10.33;89.42
64200;BME280;50516;52.272;5.136;2022-11-18T08:59:12;100051.25;;;10.51;88.94
64200;BME280;50516;52.272;5.136;2022-11-18T09:01:37;100061.69;;;10.49;88.67
64200;BME280;50516;52.272;5.136;2022-11-18T09:04:05;100062.16;;;10.56;88.67
64200;BME280;50516;52.272;5.136;2022-11-18T09:06:30;100059.59;;;10.65;88.14
64200;BME280;50516;52.272;5.136;2022-11-18T09:08:55;100066.44;;;10.68;88.33
64200;BME280;50516;52.272;5.136;2022-11-18T09:11:23;100069.53;;;10.61;87.98
64200;BME280;50516;52.272;5.136;2022-11-18T09:13:53;100078.44;;;10.72;88.19
64200;BME280;50516;52.272;5.136;2022-11-18T09:16:19;100073.22;;;10.75;87.94
64200;BME280;50516;52.272;5.136;2022-11-18T09:18:44;100075.41;;;10.73;87.66
64200;BME280;50516;52.272;5.136;2022-11-18T09:21:09;100080.69;;;10.70;87.31
64200;BME280;50516;52.272;5.136;2022-11-18T09:23:36;100078.97;;;10.50;87.75
64200;BME280;50516;52.272;5.136;2022-11-18T09:26:07;100089.56;;;10.62;88.28
64200;BME280;50516;52.272;5.136;2022-11-18T09:28:33;100086.97;;;10.70;87.61
64200;BME280;50516;52.272;5.136;2022-11-18T09:31:02;100100.06;;;10.78;87.44
64200;BME280;50516;52.272;5.136;2022-11-18T09:33:27;100094.28;;;11.04;85.58
64200;BME280;50516;52.272;5.136;2022-11-18T09:35:53;100093.53;;;10.99;85.71
64200;BME280;50516;52.272;5.136;2022-11-18T09:38:18;100097.66;;;10.96;85.89
64200;BME280;50516;52.272;5.136;2022-11-18T09:41:28;100094.41;;;10.94;86.12
64200;BME280;50516;52.272;5.136;2022-11-18T09:44:38;100100.81;;;11.08;85.86
64200;BME280;50516;52.272;5.136;2022-11-18T09:49:36;100111.03;;;11.27;85.42
64200;BME280;50516;52.272;5.136;2022-11-18T09:54:51;100117.72;;;10.72;86.21
64200;BME280;50516;52.272;5.136;2022-11-18T09:57:23;100121.13;;;10.64;86.42
64200;BME280;50516;52.272;5.136;2022-11-18T09:59:49;100132.53;;;10.47;86.90
64200;BME280;50516;52.272;5.136;2022-11-18T10:05:06;100139.97;;;10.41;86.95
64200;BME280;50516;52.272;5.136;2022-11-18T10:07:46;100137.22;;;10.41;87.29
64200;BME280;50516;52.272;5.136;2022-11-18T10:10:20;100135.31;;;10.42;87.08
64200;BME280;50516;52.272;5.136;2022-11-18T10:13:16;100149.59;;;10.68;86.63
64200;BME280;50516;52.272;5.136;2022-11-18T10:16:03;100146.00;;;10.73;86.48
64200;BME280;50516;52.272;5.136;2022-11-18T10:18:55;100147.16;;;10.67;86.03
64200;BME280;50516;52.272;5.136;2022-11-18T10:21:42;100148.53;;;10.93;85.61
64200;BME280;50516;52.272;5.136;2022-11-18T10:24:18;100159.63;;;11.07;85.24
64200;BME280;50516;52.272;5.136;2022-11-18T10:26:44;100162.72;;;11.01;86.14
64200;BME280;50516;52.272;5.136;2022-11-18T10:29:09;100162.19;;;11.23;85.57
64200;BME280;50516;52.272;5.136;2022-11-18T10:31:51;100166.13;;;11.17;85.40
64200;BME280;50516;52.272;5.136;2022-11-18T10:34:18;100171.38;;;11.13;86.02
64200;BME280;50516;52.272;5.136;2022-11-18T10:36:57;100166.69;;;11.13;85.42
64200;BME280;50516;52.272;5.136;2022-11-18T10:39:23;100162.78;;;11.20;85.04
64200;BME280;50516;52.272;5.136;2022-11-18T10:41:50;100168.72;;;11.27;85.25
64200;BME280;50516;52.272;5.136;2022-11-18T10:44:39;100164.53;;;11.35;85.29
64200;BME280;50516;52.272;5.136;2022-11-18T10:47:15;100168.56;;;11.42;85.44
64200;BME280;50516;52.272;5.136;2022-11-18T10:49:41;100164.53;;;11.35;85.34
64200;BME280;50516;52.272;5.136;2022-11-18T10:52:12;100167.97;;;11.45;84.54
64200;BME280;50516;52.272;5.136;2022-11-18T10:54:39;100164.75;;;11.38;85.08
64200;BME280;50516;52.272;5.136;2022-11-18T10:57:20;100167.50;;;11.38;84.71
64200;BME280;50516;52.272;5.136;2022-11-18T10:59:49;100176.22;;;11.45;84.96
64200;BME280;50516;52.272;5.136;2022-11-18T11:02:32;100170.66;;;11.50;84.16
64200;BME280;50516;52.272;5.136;2022-11-18T11:05:03;100168.81;;;11.65;84.13
64200;BME280;50516;52.272;5.136;2022-11-18T11:07:33;100165.31;;;11.78;83.30
64200;BME280;50516;52.272;5.136;2022-11-18T11:12:55;100172.50;;;11.55;83.96
64200;BME280;50516;52.272;5.136;2022-11-18T11:15:42;100177.50;;;11.53;83.92
64200;BME280;50516;52.272;5.136;2022-11-18T11:18:24;100175.84;;;11.52;83.39
64200;BME280;50516;52.272;5.136;2022-11-18T11:23:33;100182.22;;;11.47;84.63
64200;BME280;50516;52.272;5.136;2022-11-18T11:26:08;100179.78;;;11.46;84.76
64200;BME280;50516;52.272;5.136;2022-11-18T11:28:43;100189.13;;;11.45;84.49
64200;BME280;50516;52.272;5.136;2022-11-18T11:31:20;100185.56;;;11.44;84.82
64200;BME280;50516;52.272;5.136;2022-11-18T11:36:19;100186.63;;;11.67;84.87
64200;BME280;50516;52.272;5.136;2022-11-18T11:38:56;100198.88;;;11.56;85.65
64200;BME280;50516;52.272;5.136;2022-11-18T11:41:29;100201.88;;;11.79;84.82
64200;BME280;50516;52.272;5.136;2022-11-18T11:49:18;100206.19;;;11.66;85.46
64200;BME280;50516;52.272;5.136;2022-11-18T11:51:58;100207.81;;;11.67;85.13
64200;BME280;50516;52.272;5.136;2022-11-18T11:54:49;100211.06;;;11.69;84.27
64200;BME280;50516;52.272;5.136;2022-11-18T11:57:45;100210.44;;;11.77;84.42
64200;BME280;50516;52.272;5.136;2022-11-18T12:00:15;100209.91;;;11.75;84.71
64200;BME280;50516;52.272;5.136;2022-11-18T12:03:06;100214.38;;;11.71;85.61
64200;BME280;50516;52.272;5.136;2022-11-18T12:05:37;100207.22;;;11.70;85.35
64200;BME280;50516;52.272;5.136;2022-11-18T12:08:11;100209.09;;;11.75;84.96
64200;BME280;50516;52.272;5.136;2022-11-18T12:18:56;100225.81;;;11.78;84.63
64200;BME280;50516;52.272;5.136;2022-11-18T12:24:29;100220.00;;;11.61;85.64
64200;BME280;50516;52.272;5.136;2022-11-18T12:27:03;100221.78;;;11.51;85.58
64200;BME280;50516;52.272;5.136;2022-11-18T12:32:22;100230.53;;;11.54;86.23
64200;BME280;50516;52.272;5.136;2022-11-18T12:34:54;100233.94;;;11.45;86.49
64200;BME280;50516;52.272;5.136;2022-11-18T12:42:46;100235.09;;;11.39;88.58
64200;BME280;50516;52.272;5.136;2022-11-18T12:50:55;100241.41;;;11.40;89.58
64200;BME280;50516;52.272;5.136;2022-11-18T12:53:34;100241.13;;;11.41;90.00
64200;BME280;50516;52.272;5.136;2022-11-18T12:56:11;100248.50;;;11.46;90.07
64200;BME280;50516;52.272;5.136;2022-11-18T12:58:53;100246.81;;;11.50;89.85
64200;BME280;50516;52.272;5.136;2022-11-18T13:01:24;100246.81;;;11.50;89.82
64200;BME280;50516;52.272;5.136;2022-11-18T13:03:51;100253.94;;;11.51;89.91
64200;BME280;50516;52.272;5.136;2022-11-18T13:06:23;100245.88;;;11.60;89.69
64200;BME280;50516;52.272;5.136;2022-11-18T13:08:53;100251.22;;;11.70;89.61
64200;BME280;50516;52.272;5.136;2022-11-18T13:11:19;100248.47;;;11.70;89.11
64200;BME280;50516;52.272;5.136;2022-11-18T13:14:05;100245.13;;;11.73;88.91
64200;BME280;50516;52.272;5.136;2022-11-18T13:16:49;100255.03;;;11.74;89.10
64200;BME280;50516;52.272;5.136;2022-11-18T13:19:33;100254.31;;;11.87;89.06
64200;BME280;50516;52.272;5.136;2022-11-18T13:22:00;100265.09;;;11.84;89.33
64200;BME280;50516;52.272;5.136;2022-11-18T13:25:01;100262.09;;;11.80;88.80
64200;BME280;50516;52.272;5.136;2022-11-18T13:27:38;100265.50;;;11.72;88.76
64200;BME280;50516;52.272;5.136;2022-11-18T13:30:13;100271.59;;;11.93;88.50
64200;BME280;50516;52.272;5.136;2022-11-18T13:32:44;100272.88;;;12.01;88.99
64200;BME280;50516;52.272;5.136;2022-11-18T13:35:15;100279.03;;;11.93;88.79
64200;BME280;50516;52.272;5.136;2022-11-18T13:40:24;100288.34;;;11.73;87.29
64200;BME280;50516;52.272;5.136;2022-11-18T13:42:50;100279.78;;;11.74;88.29
64200;BME280;50516;52.272;5.136;2022-11-18T13:45:15;100274.81;;;11.76;88.13
64200;BME280;50516;52.272;5.136;2022-11-18T13:47:43;100288.91;;;11.69;87.69
64200;BME280;50516;52.272;5.136;2022-11-18T13:55:32;100287.50;;;11.48;87.80
64200;BME280;50516;52.272;5.136;2022-11-18T13:58:04;100291.19;;;11.38;87.99
64200;BME280;50516;52.272;5.136;2022-11-18T14:00:32;100295.34;;;11.36;87.71
64200;BME280;50516;52.272;5.136;2022-11-18T14:03:22;100289.19;;;11.20;88.06
64200;BME280;50516;52.272;5.136;2022-11-18T14:05:56;100294.16;;;11.18;88.28
64200;BME280;50516;52.272;5.136;2022-11-18T14:08:30;100289.25;;;11.14;87.80
64200;BME280;50516;52.272;5.136;2022-11-18T14:10:57;100289.25;;;11.14;87.72
64200;BME280;50516;52.272;5.136;2022-11-18T14:13:28;100294.25;;;11.07;88.54
64200;BME280;50516;52.272;5.136;2022-11-18T14:16:03;100290.50;;;10.98;88.06
64200;BME280;50516;52.272;5.136;2022-11-18T14:18:49;100301.94;;;11.05;87.97
64200;BME280;50516;52.272;5.136;2022-11-18T14:21:35;100300.22;;;11.14;87.84
64200;BME280;50516;52.272;5.136;2022-11-18T14:24:04;100302.69;;;11.16;88.10
64200;BME280;50516;52.272;5.136;2022-11-18T14:26:32;100305.44;;;11.16;87.97
64200;BME280;50516;52.272;5.136;2022-11-18T14:29:00;100307.34;;;11.15;88.29
64200;BME280;50516;52.272;5.136;2022-11-18T14:31:29;100311.50;;;11.13;87.77